Kingfield, Maine
Current Conditions -  °F | °C
As of 1:55 AM on Thursday 27 Nov 2014 (Local Time) from KWVL Reporting Station
Overcast Overcast  
Wind Chill: 14°   Ceiling: 800
Heat Index: 28°   Visibility: 1mi
Dew Point: 23°   Wind: 26mph
Humidity: 80%   Direction: 360°N
Pressure: 29.71"   Gusts: 32mph
Location:  44.96°N, 70.15°W
Report Text: KWVL 270655Z 36023G28KT 1SM OVC008 M02/M05 A2971 RMK AO1 P0001
Loading
Personal Weather Stations






























Interactive Weather Map New forecast layout! Learn more

10-Day Weather Forecast

Advertisements
Track Severe Weather on mobile